• Join FlightAware (Why Join?)
  • Login
  • US Flag 
Gobble Gobble! 
07:22PM EST


 

Airport Tracker/Info


-or-


 

Live Flight TrackerFlight Track Log ✈ GJS3707 ✈ 14-Nov-2013 ✈ KBOI - KORD

Flight Track Log - Related Links

Times and Time Zones

All times are in EST time to prevent confusion due to time zone crossing. See the GJS3707 flight status page for this flight to view local times or setup timezone preferences in your user account.

Time Position Orientation Groundspeed Altitude Reporting Facility
EST Latitude Longitude Course Direction KTS MPH feet Rate Location/Type
03:11PM 43.5333 -116.1356 117° Southeast 180 207 5,600  Level Salt Lake Center
03:12PM 43.5125 -116.0475 108° East 245 282 7,300 1,860 Climbing Salt Lake Center
03:13PM 43.5311 -115.9419 76° East 291 335 9,500 2,220 Climbing Salt Lake Center
03:14PM 43.5514 -115.8203 77° East 308 354 11,900 2,220 Climbing Salt Lake Center
03:15PM 43.6321 -115.1729 82° East  Level Estimated
03:15PM 43.5736 -115.6911 77° East 328 377 14,200  Level Salt Lake Center
03:16PM 43.5958 -115.5564 77° East 342 394 16,300 1,800 Climbing Salt Lake Center
03:17PM 43.6189 -115.4158 77° East 356 410 18,000 1,320 Climbing Salt Lake Center
03:18PM 43.6408 -115.2761 78° East 380 437 19,100 960 Climbing Salt Lake Center
03:19PM 43.6681 -115.1125 77° East 412 474 20,100 960 Climbing Salt Lake Center
03:20PM 43.6950 -114.9386 78° East 437 503 21,200 960 Climbing Salt Lake Center
03:21PM 43.7233 -114.7572 78° East 462 532 22,200 1,020 Climbing Salt Lake Center
03:22PM 43.7525 -114.5714 78° East 472 543 23,300 1,020 Climbing Salt Lake Center
03:23PM 43.7789 -114.3972 78° East 482 555 24,300 960 Climbing Salt Lake Center
03:24PM 43.8072 -114.2056 78° East 489 563 25,300 960 Climbing Salt Lake Center
03:25PM 43.8356 -114.0158 78° East 488 562 26,400 960 Climbing Salt Lake Center
03:26PM 43.8631 -113.8322 78° East 487 560 27,400 900 Climbing Salt Lake Center
03:27PM 43.8886 -113.6547 79° East 491 565 28,300 1,020 Climbing Salt Lake Center
03:28PM 43.9183 -113.4439 79° East 498 573 29,500 960 Climbing Salt Lake Center
03:29PM 43.9436 -113.2661 79° East 495 570 30,400 960 Climbing Salt Lake Center
03:30PM 43.9728 -113.0597 79° East 491 565 31,600 1,020 Climbing Salt Lake Center
03:31PM 43.9972 -112.8814 79° East 491 565 32,500 1,020 Climbing Salt Lake Center
03:32PM 44.0258 -112.6758 79° East 489 563 33,700 960 Climbing Salt Lake Center
03:33PM 44.0472 -112.5003 80° East 484 557 34,600 720 Climbing Salt Lake Center
03:34PM 44.0744 -112.2978 79° East 480 552 35,200 480 Climbing Salt Lake Center
03:35PM 44.0894 -112.1203 83° East 483 556 35,700 420 Climbing Salt Lake Center
03:36PM 44.0917 -111.9458 89° East 476 548 36,100 480 Climbing Salt Lake Center
03:37PM 44.0919 -111.7339 90° East 491 565 36,700 420 Climbing Salt Lake Center
03:38PM 44.0936 -111.5539 89° East 490 564 37,000 120 Climbing Salt Lake Center
03:39PM 44.0944 -111.3400 90° East 499 574 37,000  Level Salt Lake Center
03:41PM 44.0939 -111.1525 90° East 507 583 37,000  Level Salt Lake Center
03:42PM 44.0936 -110.9331 90° East 512 589 37,000  Level Salt Lake Center
03:43PM 44.0936 -110.7417 90° East 518 596 37,000  Level Salt Lake Center
03:44PM 44.0928 -110.5197 90° East 517 595 37,000  Level Salt Lake Center
03:45PM 44.0922 -110.3292 90° East 517 595 37,000  Level Salt Lake Center
03:46PM 44.0903 -110.1061 91° East 517 595 37,000  Level Salt Lake Center
03:47PM 44.0878 -109.9181 91° East 511 588 37,000  Level Salt Lake Center
03:48PM 44.0856 -109.6967 91° East 512 589 37,000  Level Salt Lake Center
03:49PM 44.0833 -109.5094 91° East 508 585 37,000  Level Salt Lake Center
03:50PM 44.0797 -109.3003 91° East 500 575 37,000  Level Salt Lake Center
03:51PM 44.0767 -109.1039 91° East 507 583 37,000  Level Salt Lake Center
03:52PM 44.0728 -108.9103 92° East 506 582 37,000  Level Salt Lake Center
03:53PM 44.0700 -108.7158 91° East 505 581 37,000  Level Salt Lake Center
03:54PM 44.0653 -108.5239 92° East 502 578 37,000  Level Salt Lake Center
03:55PM 44.0608 -108.3319 92° East 500 575 37,000  Level Salt Lake Center
03:56PM 44.0544 -108.1022 92° East 499 574 37,000  Level Salt Lake Center
03:57PM 44.0492 -107.9100 92° East 501 577 37,000  Level Salt Lake Center
03:58PM 44.0439 -107.7164 92° East 505 581 37,000  Level Salt Lake Center
03:59PM 44.0381 -107.5233 92° East 505 581 37,000  Level Salt Lake Center
04:00PM 44.0317 -107.3297 93° East 506 582 37,000  Level Salt Lake Center
04:01PM 44.0239 -107.0967 93° East 506 582 37,000  Level Salt Lake Center
04:02PM 44.0175 -106.9039 93° East 505 581 37,000  Level Salt Lake Center
04:03PM 44.0142 -106.8128 93° East 506 582 37,000  Level Denver Center
04:04PM 44.0064 -106.5972 93° East 503 579 37,000  Level Denver Center
04:04PM 44.0031 -106.5172 93° East 504 580 37,000  Level Salt Lake Center
04:05PM 43.9992 -106.3239 92° East 504 580 37,000  Level Salt Lake Center
04:06PM 44.0011 -106.2269 88° East 498 573 37,000  Level Denver Center
04:07PM 44.0033 -106.0078 89° East 505 581 37,000  Level Denver Center
04:08PM 44.0028 -105.8222 90° East 504 580 37,000  Level Denver Center
04:09PM 44.0033 -105.6042 90° East 504 580 37,000  Level Denver Center
04:10PM 44.0039 -105.4169 90° East 506 582 37,000  Level Denver Center
04:11PM 44.0033 -105.2028 90° East 500 575 37,000  Level Denver Center
04:12PM 44.0028 -105.0158 90° East 502 578 37,000  Level Denver Center
04:13PM 44.0014 -104.7989 90° East 503 579 37,000  Level Denver Center
04:14PM 44.0006 -104.6125 90° East 503 579 37,000  Level Denver Center
04:15PM 43.9986 -104.4275 91° East 502 578 37,000  Level Denver Center
04:16PM 43.9961 -104.2125 91° East 499 574 37,000  Level Denver Center
04:17PM 43.9947 -104.0289 91° East 497 572 37,000  Level Denver Center
04:18PM 43.9906 -103.8131 91° East 499 574 37,000  Level Denver Center
04:19PM 43.9883 -103.6275 91° East 502 578 37,000  Level Denver Center
04:20PM 43.9842 -103.4111 91° East 503 579 37,000  Level Denver Center
04:21PM 43.9814 -103.2261 91° East 502 578 37,100  Climbing Denver Center
04:22PM 43.9761 -103.0103 92° East 501 577 37,000 -60 Descending Denver Center
04:23PM 43.9719 -102.8214 92° East 503 579 37,000  Level Denver Center
04:24PM 43.9653 -102.6261 93° East 506 582 37,000  Level Denver Center
04:25PM 43.9592 -102.4311 92° East 507 583 37,000  Level Denver Center
04:26PM 43.9506 -102.2353 93° East 509 586 37,000  Level Denver Center
04:27PM 43.9444 -102.0425 92° East 504 580 37,000  Level Denver Center
04:28PM 43.9358 -101.8106 93° East 504 580 37,000  Level Denver Center
04:29PM 43.9317 -101.6206 92° East 499 574 37,000  Level Denver Center
04:31PM 43.9247 -101.4267 93° East 504 580 37,000  Level Denver Center
04:32PM 43.9169 -101.2325 93° East 506 582 37,000  Level Denver Center
04:33PM 43.8972 -101.0417 98° East 501 577 37,000  Level Denver Center
04:34PM 43.8675 -100.8519 102° East 507 583 37,000  Level Denver Center
04:35PM 43.8261 -100.5892 102° East 504 580 37,000  Level Minneapolis Center
04:36PM 43.7947 -100.4011 103° East 505 581 37,000  Level Minneapolis Center
04:37PM 43.7642 -100.2111 102° East 507 583 37,000  Level Minneapolis Center
04:38PM 43.7261 -99.9842 103° East 508 585 37,000  Level Minneapolis Center
04:39PM 43.6942 -99.7944 103° East 508 585 37,000  Level Minneapolis Center
04:40PM 43.6608 -99.6036 104° East 511 588 37,000  Level Minneapolis Center
04:41PM 43.6289 -99.4144 103° East 509 586 37,100  Climbing Minneapolis Center
04:42PM 43.5964 -99.2256 103° East 509 586 37,000 -60 Descending Minneapolis Center
04:43PM 43.5558 -98.9989 104° East 509 586 37,000  Level Minneapolis Center
04:44PM 43.5225 -98.8089 104° East 510 587 37,000  Level Minneapolis Center
04:45PM 43.4903 -98.6308 104° East 513 590 37,100  Climbing Minneapolis Center
04:46PM 43.4547 -98.4406 104° East 515 593 37,000 -60 Descending Minneapolis Center
04:47PM 43.4133 -98.2119 104° East 515 593 37,000  Level Minneapolis Center
04:48PM 43.3772 -98.0225 105° East 515 593 37,000  Level Minneapolis Center
04:49PM 43.3425 -97.8325 104° East 516 594 37,100  Climbing Minneapolis Center
04:50PM 43.3067 -97.6419 104° East 517 595 37,000 -60 Descending Minneapolis Center
04:52PM 43.2706 -97.4547 105° East 512 589 37,000  Level Minneapolis Center
04:53PM 43.2342 -97.2669 105° East 513 590 37,000  Level Minneapolis Center
04:54PM 43.1903 -97.0422 105° East 512 589 37,000  Level Minneapolis Center
04:55PM 43.1519 -96.8539 106° East 515 593 37,000  Level Minneapolis Center
04:56PM 43.1158 -96.6667 105° East 514 592 37,000  Level Minneapolis Center
04:57PM 43.0783 -96.4808 105° East 512 589 37,000  Level Minneapolis Center
04:58PM 43.0408 -96.2942 105° East 513 590 37,000  Level Minneapolis Center
04:59PM 42.9939 -96.0694 106° East 515 593 37,000  Level Minneapolis Center
05:00PM 42.9556 -95.8825 106° East 516 594 37,000  Level Minneapolis Center
05:01PM 42.9161 -95.6972 106° East 513 590 37,000  Level Minneapolis Center
05:02PM 42.8767 -95.5094 106° East 517 595 37,000  Level Minneapolis Center
05:03PM 42.8375 -95.3219 106° East 517 595 37,000  Level Minneapolis Center
05:04PM 42.7883 -95.0967 106° East 520 598 37,000  Level Minneapolis Center
05:05PM 42.7469 -94.9083 107° East 521 600 37,000  Level Minneapolis Center
05:06PM 42.7056 -94.7183 106° East 520 598 37,000  Level Minneapolis Center
05:07PM 42.6656 -94.5311 106° East 525 604 37,000  Level Minneapolis Center
05:08PM 42.6214 -94.3447 108° East 526 605 37,000  Level Minneapolis Center
05:09PM 42.6036 -94.1494 97° East 526 605 37,000  Level Minneapolis Center
05:10PM 42.5986 -93.9100 92° East 533 613 37,000  Level Minneapolis Center
05:11PM 42.5919 -93.7106 93° East 535 616 37,000  Level Minneapolis Center
05:12PM 42.5856 -93.5103 92° East 536 617 37,000  Level Minneapolis Center
05:13PM 42.5778 -93.3081 93° East 540 621 37,000  Level Minneapolis Center
05:14PM 42.5694 -93.1067 93° East 537 618 37,000  Level Chicago Center
05:16PM 42.5519 -92.6650 93° East 539 620 37,000  Level Minneapolis Center
05:17PM 42.5433 -92.4644 93° East 538 619 37,000  Level Minneapolis Center
05:18PM 42.5319 -92.2625 94° East 540 621 37,000 -600 Level Chicago Center
05:19PM 42.5228 -92.0269 93° East 532 612 35,800 -1,080 Descending Chicago Center
05:20PM 42.5261 -91.8319 89° East 528 608 34,800 -960 Descending Chicago Center
05:22PM 42.5267 -91.6419 90° East 521 600 33,800 -960 Descending Chicago Center
05:23PM 42.5269 -91.4528 90° East 515 593 32,900 -1,200 Descending Chicago Center
05:24PM 42.5275 -91.2239 90° East 517 595 31,400 -1,380 Descending Chicago Center
05:25PM 42.5264 -91.0389 90° East 503 579 30,100 -1,260 Descending Chicago Center
05:26PM 42.5772 -90.8761 67° East 503 579 28,800 -1,260 Descending Chicago Center
05:27PM 42.6917 -90.7961 27° Northeast 479 551 27,500 -900 Descending Chicago Center
05:28PM 42.7675 -90.6172 60° Northeast 479 551 27,000 -780 Descending Chicago Center
05:29PM 42.7253 -90.4461 109° East 484 557 26,000 -960 Descending Chicago Center
05:30PM 42.6750 -90.2842 113° Southeast 472 543 25,000 -960 Descending Chicago Center
05:31PM 42.6378 -90.1183 107° East 470 541 24,000 -1,020 Descending Chicago Center
05:32PM 42.6189 -89.9481 99° East 463 533 23,000 -1,020 Descending Chicago Center
05:33PM 42.6003 -89.7711 98° East 452 520 21,900 -1,020 Descending Chicago Center
05:34PM 42.5817 -89.6036 99° East 450 518 20,900 -1,080 Descending Chicago Center
05:35PM 42.5594 -89.4061 99° East 446 513 19,700 -1,800 Descending Chicago Center
05:36PM 42.5419 -89.2439 98° East 441 507 17,300 -2,460 Descending Chicago Center
05:37PM 42.5244 -89.0878 99° East 429 494 14,700 -1,620 Descending Chicago Center
05:38PM 42.5050 -88.9358 100° East 415 478 14,000 -840 Descending Chicago Center
05:39PM 42.4653 -88.7986 111° Southeast 397 457 13,000 -1,440 Descending Chicago Center
05:40PM 42.4178 -88.6425 112° Southeast 379 436 11,000 -1,020 Descending Chicago Center
05:41PM 42.3775 -88.5097 112° Southeast 382 440 11,000 -540 Level Chicago Center
05:42PM 42.3358 -88.3822 114° Southeast 375 432 10,000 -780 Descending Chicago Center
05:43PM 42.2817 -88.2917 129° Southeast 330 380 9,400 -1,200 Descending Chicago Center
05:44PM 42.2206 -88.1886 129° Southeast 298 343 7,600 -1,200 Descending Chicago Center
05:45PM 42.1661 -88.1114 134° Southeast 290 334 7,000 -300 Descending Chicago Center
05:46PM 42.1039 -88.0433 141° Southeast 289 333 7,000  Level Chicago Center
05:47PM 42.0919 -87.9256 98° East 318 366 7,000 -120 Level Chicago Center
05:48PM 42.0917 -87.8150 90° East 300 345 6,800 -600 Descending Chicago Center
05:49PM 42.0833 -87.7000 96° East 252 290 5,800 -1,260 Descending Chicago TRACON
05:51PM 42.0500 -87.6833 160° South 173 199 4,200 -1,320 Descending Chicago TRACON
05:52PM 42.0167 -87.7167 217° Southwest 153 176 3,100 -1,020 Descending Chicago TRACON
05:53PM 42.0000 -87.7667 246° West 145 167 2,200 -600 Descending Chicago TRACON
05:54PM 42.0000 -87.8167 270° West 121 139 1,900 -480 Descending Chicago TRACON
05:55PM 42.0000 -87.8667 270° West 132 152 1,200 -720 Descending Chicago TRACON